createdAt,value
2018-02-26T00:02:05.501Z,-8.10
2018-02-26T00:04:33.777Z,-8.20
2018-02-26T00:07:02.079Z,-8.20
2018-02-26T00:09:29.598Z,-8.30
2018-02-26T00:11:57.146Z,-8.20
2018-02-26T00:14:24.662Z,-8.00
2018-02-26T00:16:52.192Z,-8.00
2018-02-26T00:19:20.466Z,-8.20
2018-02-26T00:21:48.738Z,-8.30
2018-02-26T00:24:17.038Z,-8.30
2018-02-26T00:26:45.301Z,-8.30
2018-02-26T00:29:13.599Z,-8.20
2018-02-26T00:31:41.109Z,-8.30
2018-02-26T00:34:08.616Z,-8.20
2018-02-26T00:36:36.138Z,-8.30
2018-02-26T00:39:03.643Z,-8.10
2018-02-26T00:41:31.169Z,-8.20
2018-02-26T00:43:59.449Z,-8.30
2018-02-26T00:46:27.725Z,-8.30
2018-02-26T00:48:55.249Z,-8.40
2018-02-26T00:51:22.768Z,-8.30
2018-02-26T00:53:50.276Z,-8.20
2018-02-26T00:56:17.798Z,-8.30
2018-02-26T00:58:45.309Z,-8.10
2018-02-26T01:01:12.836Z,-8.10
2018-02-26T01:03:40.338Z,-8.30
2018-02-26T01:06:07.852Z,-8.40
2018-02-26T01:08:35.357Z,-8.50
2018-02-26T01:11:02.861Z,-8.50
2018-02-26T01:13:30.386Z,-8.20
2018-02-26T01:15:58.654Z,-8.30
2018-02-26T01:18:26.212Z,-8.40
2018-02-26T01:20:54.685Z,-8.00
2018-02-26T01:23:22.203Z,-7.80
2018-02-26T01:25:49.721Z,-8.00
2018-02-26T01:28:18.035Z,-8.50
2018-02-26T01:30:46.221Z,-8.60
2018-02-26T01:33:14.397Z,-8.70
2018-02-26T01:35:41.946Z,-8.60
2018-02-26T01:38:10.472Z,-8.60
2018-02-26T01:40:37.997Z,-8.60
2018-02-26T01:43:05.499Z,-8.50
2018-02-26T01:45:33.021Z,-8.70
2018-02-26T01:48:00.569Z,-8.80
2018-02-26T01:50:28.105Z,-8.90
2018-02-26T01:52:55.616Z,-8.90
2018-02-26T01:55:23.115Z,-8.90
2018-02-26T01:57:51.400Z,-8.90
2018-02-26T02:00:18.923Z,-9.00
2018-02-26T02:02:46.469Z,-8.70
2018-02-26T02:05:13.969Z,-8.80
2018-02-26T02:07:42.269Z,-8.60
2018-02-26T02:10:09.783Z,-8.70
2018-02-26T02:12:37.313Z,-8.50
2018-02-26T02:15:04.829Z,-8.50
2018-02-26T02:17:33.117Z,-8.80
2018-02-26T02:20:00.660Z,-9.00
2018-02-26T02:22:28.936Z,-8.90
2018-02-26T02:24:57.230Z,-8.90
2018-02-26T02:27:25.501Z,-9.00
2018-02-26T02:29:53.792Z,-9.00
2018-02-26T02:32:21.310Z,-9.10
2018-02-26T02:34:48.864Z,-9.10
2018-02-26T02:37:16.348Z,-9.20
2018-02-26T02:39:44.635Z,-9.30
2018-02-26T02:42:12.153Z,-9.40
2018-02-26T02:44:39.668Z,-9.40
2018-02-26T02:47:07.206Z,-9.20
2018-02-26T02:49:35.474Z,-9.50
2018-02-26T02:52:03.000Z,-9.60
2018-02-26T02:54:30.532Z,-9.40
2018-02-26T02:56:58.050Z,-9.40
2018-02-26T02:59:25.590Z,-9.50
2018-02-26T03:01:53.117Z,-9.20
2018-02-26T03:04:20.625Z,-9.20
2018-02-26T03:06:48.453Z,-9.40
2018-02-26T03:09:15.957Z,-9.30
2018-02-26T03:11:43.464Z,-9.50
2018-02-26T03:14:10.991Z,-9.40
2018-02-26T03:16:38.493Z,-9.50
2018-02-26T03:19:06.026Z,-9.50
2018-02-26T03:21:33.533Z,-9.50
2018-02-26T03:24:01.053Z,-9.60
2018-02-26T03:26:28.556Z,-9.60
2018-02-26T03:28:56.090Z,-9.70
2018-02-26T03:31:23.601Z,-9.50
2018-02-26T03:33:51.897Z,-9.50
2018-02-26T03:36:19.402Z,-9.60
2018-02-26T03:38:46.912Z,-9.40
2018-02-26T03:41:14.446Z,-9.20
2018-02-26T03:43:41.945Z,-9.20
2018-02-26T03:46:09.473Z,-9.30
2018-02-26T03:48:36.998Z,-9.40
2018-02-26T03:51:04.521Z,-9.60
2018-02-26T03:53:32.881Z,-9.70
2018-02-26T03:56:01.173Z,-9.90
2018-02-26T03:58:28.702Z,-10.00
2018-02-26T04:00:56.221Z,-9.80
2018-02-26T04:03:23.725Z,-9.70
2018-02-26T04:05:51.859Z,-9.60
2018-02-26T04:08:19.372Z,-9.70
2018-02-26T04:10:47.658Z,-9.70
2018-02-26T04:13:15.952Z,-9.80
2018-02-26T04:15:43.452Z,-10.00
2018-02-26T04:18:10.960Z,-9.60
2018-02-26T04:20:38.452Z,-9.90
2018-02-26T04:23:05.963Z,-9.90
2018-02-26T04:25:34.228Z,-9.90
2018-02-26T04:28:01.755Z,-10.00
2018-02-26T04:30:29.248Z,-9.60
2018-02-26T04:32:56.735Z,-9.90
2018-02-26T04:35:24.260Z,-10.00
2018-02-26T04:37:51.752Z,-9.80
2018-02-26T04:40:19.272Z,-9.90
2018-02-26T04:42:46.772Z,-9.70
2018-02-26T04:45:14.294Z,-9.90
2018-02-26T04:47:41.801Z,-10.00
2018-02-26T04:50:09.332Z,-10.00
2018-02-26T04:52:37.613Z,-10.00
2018-02-26T04:55:05.897Z,-10.10
2018-02-26T04:57:34.191Z,-10.20
2018-02-26T05:00:01.705Z,-10.30
2018-02-26T05:02:29.224Z,-10.20
2018-02-26T05:04:56.729Z,-10.00
2018-02-26T05:07:24.262Z,-9.70
2018-02-26T05:09:51.772Z,-10.00
2018-02-26T05:12:19.302Z,-9.90
2018-02-26T05:14:46.818Z,-9.70
2018-02-26T05:17:14.350Z,-9.70
2018-02-26T05:19:43.651Z,-9.90
2018-02-26T05:22:11.919Z,-10.00
2018-02-26T05:24:40.213Z,-10.10
2018-02-26T05:27:08.500Z,-10.20
2018-02-26T05:29:39.200Z,-10.30
2018-02-26T05:32:06.664Z,-10.40
2018-02-26T05:34:34.962Z,-10.50
2018-02-26T05:37:02.494Z,-10.60
2018-02-26T05:39:31.024Z,-10.50
2018-02-26T05:41:58.564Z,-10.40
2018-02-26T05:44:26.086Z,-10.50
2018-02-26T05:46:53.618Z,-10.50
2018-02-26T05:49:23.177Z,-10.50
2018-02-26T05:51:51.530Z,-10.10
2018-02-26T05:54:19.093Z,-10.20
2018-02-26T05:56:46.654Z,-10.20
2018-02-26T05:59:14.181Z,-10.30
2018-02-26T06:01:42.476Z,-10.10
2018-02-26T06:04:09.991Z,-10.30
2018-02-26T06:06:37.516Z,-10.30
2018-02-26T06:09:05.036Z,-10.40
2018-02-26T06:11:32.644Z,-10.30
2018-02-26T06:14:00.181Z,-10.40
2018-02-26T06:16:27.707Z,-10.20
2018-02-26T06:18:55.242Z,-10.10
2018-02-26T06:21:23.519Z,-10.20
2018-02-26T06:23:51.813Z,-10.20
2018-02-26T06:26:19.345Z,-10.30
2018-02-26T06:28:47.653Z,-10.10
2018-02-26T06:31:15.172Z,-10.20
2018-02-26T06:33:42.708Z,-10.30
2018-02-26T06:36:10.225Z,-10.40
2018-02-26T06:38:37.805Z,-10.50
2018-02-26T06:41:05.332Z,-10.60
2018-02-26T06:43:33.998Z,-10.70
2018-02-26T06:46:01.524Z,-10.80
2018-02-26T06:48:29.041Z,-10.50
2018-02-26T06:50:57.356Z,-10.40
2018-02-26T06:53:24.870Z,-10.60
2018-02-26T06:55:53.184Z,-10.50
2018-02-26T06:58:20.692Z,-10.60
2018-02-26T07:00:48.207Z,-10.60
2018-02-26T07:03:15.744Z,-10.50
2018-02-26T07:05:43.278Z,-10.20
2018-02-26T07:08:11.592Z,-10.40
2018-02-26T07:10:39.170Z,-10.50
2018-02-26T07:13:06.741Z,-10.40
2018-02-26T07:15:34.258Z,-10.30
2018-02-26T07:18:01.807Z,-10.30
2018-02-26T07:20:30.092Z,-10.30
2018-02-26T07:22:59.035Z,-10.30
2018-02-26T07:25:26.658Z,-10.40
2018-02-26T07:27:54.183Z,-10.20
2018-02-26T07:30:21.710Z,-10.20
2018-02-26T07:32:49.257Z,-10.20
2018-02-26T07:35:16.788Z,-10.20
2018-02-26T07:37:45.078Z,-10.10
2018-02-26T07:40:12.608Z,-10.20
2018-02-26T07:42:40.948Z,-9.90
2018-02-26T07:45:09.114Z,-10.00
2018-02-26T07:47:36.663Z,-9.90
2018-02-26T07:50:04.174Z,-9.90
2018-02-26T07:52:31.706Z,-10.10
2018-02-26T07:54:59.239Z,-10.00
2018-02-26T07:57:26.766Z,-9.80
2018-02-26T07:59:55.033Z,-9.70
2018-02-26T08:02:22.553Z,-9.80
2018-02-26T08:04:50.090Z,-9.70
2018-02-26T08:07:17.589Z,-9.60
2018-02-26T08:09:45.127Z,-9.60
2018-02-26T08:12:12.636Z,-9.50
2018-02-26T08:14:40.183Z,-9.70
2018-02-26T08:17:07.686Z,-9.70
2018-02-26T08:19:35.229Z,-9.60
2018-02-26T08:22:03.497Z,-9.60
2018-02-26T08:24:31.789Z,-9.60
2018-02-26T08:27:00.548Z,-9.40
2018-02-26T08:29:28.052Z,-9.40
2018-02-26T08:31:55.582Z,-9.50
2018-02-26T08:34:23.858Z,-9.40
2018-02-26T08:36:52.190Z,-9.30
2018-02-26T08:39:19.704Z,-9.40
2018-02-26T08:41:48.002Z,-9.00
2018-02-26T08:44:15.516Z,-9.10
2018-02-26T08:46:43.066Z,-9.10
2018-02-26T08:49:10.570Z,-9.20
2018-02-26T08:51:38.848Z,-8.90
2018-02-26T08:54:06.445Z,-9.00
2018-02-26T08:56:33.956Z,-8.80
2018-02-26T08:59:02.280Z,-8.60
2018-02-26T09:01:29.811Z,-8.70
2018-02-26T09:03:57.321Z,-8.60
2018-02-26T09:06:25.079Z,-8.70
2018-02-26T09:08:52.586Z,-8.60
2018-02-26T09:11:20.116Z,-8.50
2018-02-26T09:13:47.621Z,-8.00
2018-02-26T09:16:15.155Z,-7.80
2018-02-26T09:18:43.437Z,-8.50
2018-02-26T09:21:11.705Z,-8.70
2018-02-26T09:23:39.233Z,-8.80
2018-02-26T09:26:06.737Z,-8.30
2018-02-26T09:28:35.051Z,-7.90
2018-02-26T09:31:02.662Z,-8.00
2018-02-26T09:33:30.183Z,-8.30
2018-02-26T09:35:57.701Z,-8.30
2018-02-26T09:38:25.237Z,-8.60
2018-02-26T09:40:52.743Z,-8.60
2018-02-26T09:43:20.262Z,-8.80
2018-02-26T09:45:48.563Z,-8.70
2018-02-26T09:48:16.076Z,-8.80
2018-02-26T09:50:49.453Z,-8.80
2018-02-26T09:53:16.964Z,-8.90
2018-02-26T09:55:45.264Z,-9.20
2018-02-26T09:58:12.768Z,-9.40
2018-02-26T10:00:40.290Z,-9.10
2018-02-26T10:03:07.804Z,-9.00
2018-02-26T10:05:35.325Z,-8.80
2018-02-26T10:08:02.853Z,-8.90
2018-02-26T10:10:30.373Z,-8.80
2018-02-26T10:12:57.911Z,-8.80
2018-02-26T10:15:25.426Z,-8.90
2018-02-26T10:17:53.700Z,-8.90
2018-02-26T10:20:21.993Z,-8.90
2018-02-26T10:22:49.502Z,-8.90
2018-02-26T10:25:17.031Z,-8.70
2018-02-26T10:27:44.566Z,-8.20
2018-02-26T10:30:12.136Z,-8.10
2018-02-26T10:32:39.677Z,-8.30
2018-02-26T10:35:07.949Z,-8.40
2018-02-26T10:37:36.253Z,-8.50
2018-02-26T10:40:03.788Z,-8.60
2018-02-26T10:42:32.084Z,-8.30
2018-02-26T10:44:59.591Z,-8.40
2018-02-26T10:47:27.149Z,-8.30
2018-02-26T10:49:54.664Z,-8.00
2018-02-26T10:52:22.200Z,-7.80
2018-02-26T10:54:50.498Z,-8.00
2018-02-26T10:57:18.024Z,-8.20
2018-02-26T10:59:45.553Z,-8.00
2018-02-26T11:02:13.076Z,-8.00
2018-02-26T11:04:40.607Z,-7.90
2018-02-26T11:07:08.110Z,-8.10
2018-02-26T11:09:35.616Z,-8.00
2018-02-26T11:12:03.154Z,-7.90
2018-02-26T11:14:30.664Z,-8.10
2018-02-26T11:16:58.976Z,-7.80
2018-02-26T11:19:26.489Z,-7.90
2018-02-26T11:21:54.025Z,-7.70
2018-02-26T11:24:21.753Z,-7.80
2018-02-26T11:26:49.277Z,-7.90
2018-02-26T11:29:17.555Z,-7.60
2018-02-26T11:31:45.821Z,-7.60
2018-02-26T11:34:13.352Z,-7.70
2018-02-26T11:36:40.866Z,-7.80
2018-02-26T11:39:09.153Z,-8.00
2018-02-26T11:41:36.671Z,-8.10
2018-02-26T11:44:04.201Z,-8.00
2018-02-26T11:46:31.698Z,-8.20
2018-02-26T11:48:59.240Z,-8.20
2018-02-26T11:51:26.742Z,-8.00
2018-02-26T11:53:55.003Z,-7.60
2018-02-26T11:56:23.293Z,-7.70
2018-02-26T11:58:51.580Z,-7.70
2018-02-26T12:01:19.102Z,-7.80
2018-02-26T12:03:46.612Z,-7.90
2018-02-26T12:06:14.139Z,-8.10
2018-02-26T12:08:42.427Z,-8.00
2018-02-26T12:11:10.728Z,-7.90
2018-02-26T12:13:38.270Z,-8.00
2018-02-26T12:16:06.321Z,-7.60
2018-02-26T12:18:33.886Z,-7.40
2018-02-26T12:21:02.398Z,-7.00
2018-02-26T12:23:29.954Z,-7.10
2018-02-26T12:25:57.474Z,-7.00
2018-02-26T12:28:24.993Z,-6.90
2018-02-26T12:30:52.524Z,-7.00
2018-02-26T12:33:20.061Z,-7.10
2018-02-26T12:35:47.583Z,-7.10
2018-02-26T12:38:15.098Z,-7.00
2018-02-26T12:40:43.403Z,-6.90
2018-02-26T12:43:10.933Z,-7.00
2018-02-26T12:45:39.219Z,-7.00
2018-02-26T12:48:06.762Z,-7.10
2018-02-26T12:50:35.036Z,-6.80
2018-02-26T12:53:02.566Z,-6.90
2018-02-26T12:55:30.087Z,-7.00
2018-02-26T12:57:57.620Z,-7.00
2018-02-26T13:00:25.898Z,-7.00
2018-02-26T13:02:54.171Z,-6.90
2018-02-26T13:05:22.467Z,-7.20
2018-02-26T13:07:49.994Z,-7.30
2018-02-26T13:10:17.532Z,-7.30
2018-02-26T13:12:45.038Z,-7.40
2018-02-26T13:15:13.339Z,-7.20
2018-02-26T13:17:40.845Z,-7.30
2018-02-26T13:20:08.367Z,-7.00
2018-02-26T13:22:35.879Z,-7.00
2018-02-26T13:25:03.387Z,-7.20
2018-02-26T13:27:30.917Z,-7.10
2018-02-26T13:29:59.168Z,-6.80
2018-02-26T13:32:26.691Z,-6.90
2018-02-26T13:34:54.202Z,-6.80
2018-02-26T13:37:22.492Z,-6.50
2018-02-26T13:39:50.761Z,-6.30
2018-02-26T13:42:19.063Z,-6.40
2018-02-26T13:44:46.578Z,-6.50
2018-02-26T13:47:14.089Z,-6.10
2018-02-26T13:49:41.604Z,-6.10
2018-02-26T13:52:09.113Z,-6.00
2018-02-26T13:54:36.644Z,-5.90
2018-02-26T13:57:04.928Z,-6.10
2018-02-26T13:59:32.470Z,-6.20
2018-02-26T14:02:00.741Z,-6.00
2018-02-26T14:04:28.255Z,-6.10
2018-02-26T14:06:56.700Z,-6.10
2018-02-26T14:09:24.977Z,-6.80
2018-02-26T14:11:53.271Z,-6.70
2018-02-26T14:14:20.793Z,-6.80
2018-02-26T14:16:48.333Z,-6.50
2018-02-26T14:19:15.854Z,-6.40
2018-02-26T14:21:43.382Z,-6.40
2018-02-26T14:24:10.892Z,-6.20
2018-02-26T14:26:38.405Z,-6.40
2018-02-26T14:29:06.736Z,-6.40
2018-02-26T14:31:34.257Z,-6.50
2018-02-26T14:34:01.783Z,-6.20
2018-02-26T14:36:29.326Z,-6.10
2018-02-26T14:38:56.869Z,-5.80
2018-02-26T14:41:24.382Z,-5.70
2018-02-26T14:43:51.902Z,-5.90
2018-02-26T14:46:19.426Z,-6.00
2018-02-26T14:48:46.953Z,-6.20
2018-02-26T14:51:14.473Z,-6.40
2018-02-26T14:53:41.977Z,-6.30
2018-02-26T14:56:10.286Z,-6.60
2018-02-26T14:58:37.789Z,-6.70
2018-02-26T15:01:05.333Z,-6.70
2018-02-26T15:03:32.849Z,-6.80
2018-02-26T15:06:00.357Z,-6.80
2018-02-26T15:08:27.868Z,-7.00
2018-02-26T15:10:55.370Z,-7.10
2018-02-26T15:13:22.903Z,-7.00
2018-02-26T15:15:50.416Z,-7.00
2018-02-26T15:18:17.942Z,-7.00
2018-02-26T15:20:45.460Z,-6.90
2018-02-26T15:23:13.732Z,-6.90
2018-02-26T15:25:42.018Z,-6.90
2018-02-26T15:28:10.280Z,-6.90
2018-02-26T15:30:38.594Z,-6.90
2018-02-26T15:33:06.097Z,-7.00
2018-02-26T15:35:33.626Z,-7.00
2018-02-26T15:38:01.134Z,-7.00
2018-02-26T15:40:29.416Z,-6.90
2018-02-26T15:42:57.719Z,-6.80
2018-02-26T15:45:25.221Z,-7.00
2018-02-26T15:47:52.833Z,-6.80
2018-02-26T15:50:20.358Z,-6.90
2018-02-26T15:52:47.893Z,-7.00
2018-02-26T15:55:15.399Z,-7.00
2018-02-26T15:57:43.664Z,-7.00
2018-02-26T16:00:11.209Z,-7.10
2018-02-26T16:02:38.740Z,-6.90
2018-02-26T16:05:06.293Z,-6.80
2018-02-26T16:07:33.796Z,-6.80
2018-02-26T16:10:01.328Z,-6.80
2018-02-26T16:12:28.850Z,-6.80
2018-02-26T16:14:56.365Z,-6.80
2018-02-26T16:17:23.904Z,-6.80
2018-02-26T16:19:51.424Z,-7.10
2018-02-26T16:22:19.759Z,-7.20
2018-02-26T16:24:47.246Z,-7.20
2018-02-26T16:27:15.553Z,-7.30
2018-02-26T16:29:43.064Z,-7.40
2018-02-26T16:32:10.592Z,-7.40
2018-02-26T16:34:38.094Z,-7.50
2018-02-26T16:37:05.609Z,-7.40
2018-02-26T16:39:33.145Z,-7.10
2018-02-26T16:42:00.656Z,-7.40
2018-02-26T16:44:28.171Z,-7.40
2018-02-26T16:46:55.682Z,-7.30
2018-02-26T16:49:23.202Z,-7.30
2018-02-26T16:51:50.715Z,-7.30
2018-02-26T16:54:19.453Z,-7.50
2018-02-26T16:56:47.002Z,-7.60
2018-02-26T16:59:14.553Z,-7.50
2018-02-26T17:01:42.092Z,-7.50
2018-02-26T17:04:10.367Z,-7.40
2018-02-26T17:06:39.470Z,-7.40
2018-02-26T17:09:07.776Z,-7.50
2018-02-26T17:11:35.325Z,-7.60
2018-02-26T17:14:02.854Z,-7.60
2018-02-26T17:16:30.397Z,-7.60
2018-02-26T17:18:57.933Z,-7.80
2018-02-26T17:21:25.444Z,-7.90
2018-02-26T17:23:53.736Z,-8.00
2018-02-26T17:26:22.005Z,-8.00
2018-02-26T17:28:50.292Z,-8.00
2018-02-26T17:31:17.834Z,-8.10
2018-02-26T17:33:46.113Z,-8.10
2018-02-26T17:36:14.877Z,-8.10
2018-02-26T17:38:43.386Z,-8.30
2018-02-26T17:41:11.696Z,-8.10
2018-02-26T17:43:39.228Z,-8.20
2018-02-26T17:46:07.536Z,-8.00
2018-02-26T17:48:35.059Z,-8.10
2018-02-26T17:51:03.330Z,-8.00
2018-02-26T17:53:30.853Z,-8.10
2018-02-26T17:55:58.365Z,-8.10
2018-02-26T17:58:30.422Z,-8.10
2018-02-26T18:00:57.928Z,-8.20
2018-02-26T18:03:25.459Z,-8.10
2018-02-26T18:05:53.741Z,-8.00
2018-02-26T18:08:21.279Z,-8.10
2018-02-26T18:10:49.595Z,-8.20
2018-02-26T18:13:17.109Z,-8.30
2018-02-26T18:15:45.411Z,-8.30
2018-02-26T18:18:12.941Z,-8.30
2018-02-26T18:20:40.477Z,-8.30
2018-02-26T18:23:07.985Z,-8.30
2018-02-26T18:25:36.252Z,-8.30
2018-02-26T18:28:04.558Z,-8.30
2018-02-26T18:59:53.946Z,-8.50
2018-02-26T19:02:21.466Z,-8.60
2018-02-26T19:04:49.769Z,-8.60
2018-02-26T19:07:17.279Z,-8.70
2018-02-26T19:09:44.823Z,-8.60
2018-02-26T19:12:12.868Z,-8.60
2018-02-26T19:17:07.881Z,-8.60
2018-02-26T19:19:35.413Z,-8.60
2018-02-26T19:22:03.709Z,-8.70
2018-02-26T19:24:31.213Z,-8.80
2018-02-26T19:26:58.757Z,-8.60
2018-02-26T19:29:26.259Z,-8.60
2018-02-26T19:31:53.773Z,-8.60
2018-02-26T19:34:22.187Z,-8.60
2018-02-26T19:36:49.696Z,-8.60
2018-02-26T19:39:17.238Z,-8.50
2018-02-26T19:41:45.549Z,-8.40
2018-02-26T19:44:13.131Z,-8.60
2018-02-26T19:46:40.643Z,-8.50
2018-02-26T19:49:08.147Z,-8.50
2018-02-26T19:51:35.678Z,-8.50
2018-02-26T19:54:03.198Z,-8.60
2018-02-26T19:56:30.752Z,-8.60
2018-02-26T19:58:58.262Z,-8.60
2018-02-26T20:01:25.776Z,-8.60
2018-02-26T20:03:53.308Z,-8.70
2018-02-26T20:06:20.870Z,-8.70
2018-02-26T20:08:48.368Z,-8.70
2018-02-26T20:11:16.644Z,-8.80
2018-02-26T20:13:44.929Z,-8.70
2018-02-26T20:16:13.217Z,-8.70
2018-02-26T20:18:40.740Z,-8.80
2018-02-26T20:21:08.268Z,-8.80
2018-02-26T20:23:35.772Z,-8.80
2018-02-26T20:26:04.056Z,-8.90
2018-02-26T20:28:32.356Z,-8.90
2018-02-26T20:30:59.887Z,-9.00
2018-02-26T20:33:27.413Z,-8.90
2018-02-26T20:35:54.912Z,-9.00
2018-02-26T20:38:23.181Z,-9.00
2018-02-26T20:40:51.684Z,-9.10
2018-02-26T20:43:19.200Z,-9.10
2018-02-26T20:45:46.743Z,-9.00
2018-02-26T20:48:14.254Z,-9.10
2018-02-26T20:50:42.575Z,-9.00
2018-02-26T20:53:10.080Z,-9.20
2018-02-26T20:55:37.593Z,-9.00
2018-02-26T20:58:05.902Z,-9.00
2018-02-26T21:00:33.419Z,-9.20
2018-02-26T21:03:00.943Z,-9.00
2018-02-26T21:05:28.468Z,-9.10
2018-02-26T21:07:55.982Z,-9.10
2018-02-26T21:10:23.802Z,-9.10
2018-02-26T21:12:51.349Z,-9.00
2018-02-26T21:15:18.877Z,-9.00
2018-02-26T21:17:46.383Z,-9.00
2018-02-26T21:20:13.908Z,-9.00
2018-02-26T21:22:42.168Z,-9.10
2018-02-26T21:25:09.693Z,-9.20
2018-02-26T21:27:37.274Z,-9.20
2018-02-26T21:30:05.562Z,-9.10
2018-02-26T21:32:33.092Z,-9.20
2018-02-26T21:35:00.606Z,-9.00
2018-02-26T21:37:28.136Z,-9.10
2018-02-26T21:39:56.419Z,-9.20
2018-02-26T21:42:23.941Z,-9.30
2018-02-26T21:44:51.478Z,-9.20
2018-02-26T21:47:18.976Z,-9.10
2018-02-26T21:49:46.513Z,-9.20
2018-02-26T21:52:14.014Z,-9.10
2018-02-26T21:54:42.296Z,-9.20
2018-02-26T21:57:10.602Z,-9.20
2018-02-26T21:59:38.118Z,-9.30
2018-02-26T22:02:06.415Z,-9.10
2018-02-26T22:04:33.921Z,-9.30
2018-02-26T22:07:01.446Z,-9.20
2018-02-26T22:09:28.964Z,-9.30
2018-02-26T22:11:56.470Z,-9.00
2018-02-26T22:14:24.008Z,-9.00
2018-02-26T22:16:52.283Z,-9.30
2018-02-26T22:19:19.808Z,-9.40
2018-02-26T22:21:47.343Z,-9.40
2018-02-26T22:24:14.868Z,-9.50
2018-02-26T22:26:42.377Z,-9.50
2018-02-26T22:29:09.872Z,-9.50
2018-02-26T22:31:38.160Z,-9.50
2018-02-26T22:34:06.439Z,-9.40
2018-02-26T22:36:33.973Z,-9.50
2018-02-26T22:39:01.479Z,-9.50
2018-02-26T22:41:29.009Z,-9.60
2018-02-26T22:43:57.283Z,-9.60
2018-02-26T22:46:25.585Z,-9.50
2018-02-26T22:48:53.093Z,-9.50
2018-02-26T22:51:20.605Z,-9.10
2018-02-26T22:53:48.137Z,-9.10
2018-02-26T22:56:16.408Z,-9.20
2018-02-26T22:58:43.923Z,-9.30
2018-02-26T23:01:11.440Z,-9.00
2018-02-26T23:03:39.752Z,-9.20
2018-02-26T23:06:07.256Z,-9.30
2018-02-26T23:08:35.734Z,-8.80
2018-02-26T23:11:03.261Z,-8.90
2018-02-26T23:13:30.772Z,-9.30
2018-02-26T23:15:59.060Z,-9.20
2018-02-26T23:18:28.329Z,-9.50
2018-02-26T23:20:55.850Z,-9.60
2018-02-26T23:23:23.352Z,-9.10
2018-02-26T23:25:50.847Z,-9.40
2018-02-26T23:28:18.444Z,-9.60
2018-02-26T23:30:45.940Z,-9.60
2018-02-26T23:33:13.464Z,-9.70
2018-02-26T23:35:40.971Z,-9.50
2018-02-26T23:38:09.275Z,-9.70
2018-02-26T23:40:36.788Z,-9.80
2018-02-26T23:43:04.317Z,-9.70
2018-02-26T23:45:31.829Z,-9.50
2018-02-26T23:48:00.121Z,-9.00
2018-02-26T23:50:27.632Z,-9.10
2018-02-26T23:52:55.136Z,-9.30
2018-02-26T23:55:22.666Z,-9.60
2018-02-26T23:57:50.171Z,-9.70
